SETU/TUA METAR and TAF weather

Enter ICAO airport designator
Station Type Date Time Source
SETU METAR 2022/05/25 21:00 UTC NOAA

SETU 252100Z 08010KT 9999 VCSH BKN020 13/10 Q1030


Station Type Date Time Source
SETU Decoded METAR 2022/05/25 21:00 UTC NOAA

Tulcan / El Rosal, Ecuador (SETU) 00-49N 077-42W
May 25, 2022 - 05:00 PM EDT / 2022.05.25 2100 UTC
Wind: from the E (080 degrees) at 12 MPH (10 KT):0
Visibility: greater than 7 mile(s):0
Sky conditions: mostly cloudy
Weather: showers in the vicinity
Temperature: 55 F (13 C)
Dew Point: 50 F (10 C)
Relative Humidity: 81%
Pressure (altimeter): 30.42 in. Hg (1030 hPa)
ob: SETU 252100Z 08010KT 9999 VCSH BKN020 13/10 Q1030
cycle: 21

Station Type Date Time Source
SETU TAF UTC NOAA

Error!

Example: see airport list